ADDS METAR Data INFO
IDs: Format: Raw Decoded Include TAF

Data at: 0731 UTC 18 Oct 2017

PAOR 180653Z 14005KT 10SM FEW080 SCT100 BKN130 M06/M08 A2932 RMK AO2 SLP966 T10611078
PAOR 180553Z 14003KT 10SM SCT029 BKN120 M06/M08 A2932 RMK AO2 SLP969 4/001 T10561078 11017 21056 57008
PAOR 180453Z 14003KT 10SM SCT029 BKN130 M04/M07 A2933 RMK AO2 SLP976 T10441067
PAOR 180437Z 12005KT 10SM SCT029 BKN130 M04/M07 A2933 RMK AO2 T10441067
PAOR 180353Z 11006KT 10SM BKN029 BKN100 M03/M07 A2934 RMK AO2 SLP976 T10331067
PAOR 180253Z 11003KT 10SM BKN029 BKN100 M03/M06 A2935 RMK AO2 SLP978 MTNS OBSC S-SW T10331061 57012
PAOR 180153Z 11005KT 10SM BKN029 BKN110 M03/M07 A2936 RMK AO2 SLP982 MTNS OBSC S-SW T10281067
PAOR 180053Z 14007KT 10SM BKN027 BKN120 M02/M07 A2938 RMK AO2 SLP987 MTNS OBSC S-SW T10221067
PAOR 172353Z 13005KT 10SM BKN025 BKN120 M02/M07 A2938 RMK AO2 SLP990 4/001 T10171067 11017 21094 56017
PAOR 172328Z 14006KT 10SM BKN025 BKN120 M02/M07 A2939 RMK AO2 T10221067
PAOR 172253Z 16009KT 10SM SCT025 SCT120 M02/M07 A2940 RMK AO2 SLP993 T10221067
PAOR 172153Z 13005KT 10SM FEW050 SCT070 SCT120 M03/M07 A2942 RMK AO2 SLP000 T10281067
PAOR 172053Z 13005KT 10SM FEW050 FEW070 SCT120 M04/M07 A2944 RMK AO2 SLP006 T10391072 58011
PAOR 171953Z 13005KT 10SM FEW100 SCT120 M05/M07 A2945 RMK AO2 SLP008 T10501067
PAOR 171853Z 11004KT 10SM FEW100 BKN120 M08/M08 A2947 RMK AO2 SLP015 T10781083
PAOR 171753Z 00000KT 10SM SCT100 BKN120 M09/M10 A2947 RMK AO2 SLP018 4/001 I6000 T10941100 11094 21144 58009
PAOR 171653Z 09003KT 10SM SCT100 SCT110 M13/M14 A2948 RMK AO2 SLP025 T11331144
PAOR 171553Z 00000KT 10SM FEW110 M14/M15 A2949 RMK AO2 SLP030 I1000 T11391150
PAOR 171453Z 09003KT 10SM FEW110 M13/M13 A2950 RMK AO2 SLP030 I1000 I3000 T11281133 56008
PAOR 171353Z 00000KT 10SM FEW110 M13/M14 A2950 RMK AO2 SLP031 I1000 T11331144
PAOR 171253Z 00000KT 10SM FEW110 M13/M13 A2951 RMK AO2 SLP035 4/001 I1000 T11281133
PAOR 171153Z 00000KT 10SM SCT110 M13/M14 A2952 RMK AO2 SLP038 I1000 I6000 T11331139 11033 21133 58007
PAOR 171053Z 04003KT 10SM SCT110 M11/M12 A2953 RMK AO2 SLP038 I1000 T11061117
PAOR 170953Z 00000KT 10SM FEW040 SCT110 M10/M11 A2954 RMK AO2 SLP040 I1000 T11001111
PAOR 170853Z 00000KT 10SM FEW040 SCT110 M08/M09 A2954 RMK AO2 SLP040 T10831094 410111083 50002
PAOR 170753Z 00000KT 10SM FEW036 SCT110 M06/M08 A2954 RMK AO2 SLP038 T10561083
PAOR 170653Z 31003KT 10SM SCT036 OVC110 M04/M07 A2954 RMK AO2 SLP035 T10391072
PAOR 170553Z 31005KT 10SM BKN036 OVC110 M03/M06 A2954 RMK AO2 SLP035 4/001 T10331061 11011 21033 52005
PAOR 170453Z 31005KT 10SM SCT026 BKN033 OVC100 M03/M06 A2953 RMK AO2 SLP032 T10281061
PAOR 170353Z 31005KT 10SM SCT026 OVC100 M03/M05 A2953 RMK AO2 SLP030 T10281050
PAOR 170253Z 30005KT 10SM FEW016 SCT022 BKN095 M03/M04 A2952 RMK AO2 SLP029 MTNS OBSC S-W T10281044 52002
PAOR 170153Z 31004KT 10SM FEW016 SCT022 BKN095 M02/M04 A2952 RMK AO2 SLP027 MTNS OBSC S-W T10171044
PAOR 170117Z 00000KT 10SM FEW016 SCT022 BKN095 M02/M04 A2951 RMK AO2 T10171039
PAOR 170053Z 32004KT 10SM SCT016 BKN022 BKN090 M02/M04 A2952 RMK AO2 SLP028 MTNS OBSC S-W T10171039
PAOR 170022Z 31006KT 10SM BKN016 OVC090 M01/M04 A2952 RMK AO2 T10111039
PAOR 162353Z VRB04KT 10SM BKN014 BKN016 OVC019 M01/M03 A2952 RMK AO2 SLP027 4/001 T10111033 11011 21033 53002
PAOR 162344Z 34004KT 10SM BKN014 BKN016 OVC019 M01/M03 A2951 RMK AO2 T10111033
PAOR 162253Z 32003KT 10SM BKN015 BKN025 OVC030 M01/M03 A2951 RMK AO2 SNE2157 SLP025 T10111033
PAOR 162241Z VRB03KT 10SM BKN015 BKN025 OVC030 M01/M03 A2951 RMK AO2 SNE2157 T10111028
PAOR 162153Z 00000KT 7SM -SN BKN010 BKN015 OVC025 M02/M02 A2951 RMK AO2 SLP026 T10171022
PAOR 162148Z 00000KT 1 3/4SM -SN BR BKN010 BKN015 OVC025 M02/M02 A2951 RMK AO2
PAOR 162146Z 00000KT 2SM -SN BR BKN010 BKN015 OVC025 M02/M02 A2951 RMK AO2 T10171022
PAOR 162142Z 00000KT 4SM -SN BR BKN010 BKN015 OVC025 M02/M02 A2951 RMK AO2 T10171022
PAOR 162120Z 00000KT 1SM -SN BR BKN009 BKN014 OVC020 M02/M02 A2951 RMK AO2 T10171022
PAOR 162115Z 00000KT 1SM -SN BR BKN010 BKN014 OVC020 M02/M03 A2951 RMK AO2 T10171028
PAOR 162104Z 00000KT 3/4SM -SN BR BKN010 BKN014 OVC020 M02/M03 A2951 RMK AO2 T10171028
PAOR 162053Z 00000KT 1 1/2SM -SN BR BKN010 BKN014 OVC020 M02/M02 A2951 RMK AO2 SNB15 SLP024 T10171022 51003
PAOR 162043Z 20003KT 2 1/2SM -SN BR BKN010 BKN014 OVC020 M02/M02 A2951 RMK AO2 SNB15 T10171022
PAOR 161953Z 00000KT 10SM FEW010 BKN012 BKN016 M02/M03 A2951 RMK AO2 SNE33 SLP023 T10171028